High Point, NC

5:04 PM EST on February 27, 2015 (GMT -0500)
Between the Lakes | Change Station
CLOSE
Current Station
Personal Weather Station
Location: High Point, NC
Elevation: 843 ft
Nearby Weather Stations
Active Advisory: Winter Weather Advisory

Elev 843 ft 36.01 °N, 79.97 °W | Updated 6 minutes ago

Partly Cloudy
Partly Cloudy
46.6 °F
Feels Like 47 °F
N
1.7
Wind Variable Wind from North

Today
High -- | Low -- °F
--% Chance of Precip.
Yesterday
High -- | Low -- °F
Precip. -- in
6:53 AM 6:12 PM
Waxing Gibbous, 72% visible
Pressure 30.40 in
Visibility 10.0 miles
Clouds Few 5000 ft
Windchill 47 °F
Dew Point 37 °F
Humidity 70%
Rainfall 0.91 in
Snow Depth Not available.
UV 1 out of 12
Pollen 4.90 out of 12
Air Quality Not available.
Flu Activity Not available.
METAR KGSO 272154Z 35005KT 10SM FEW050 07/M07 A3038 RMK AO2 SLP292 T00671067 $

More Conditions Fewer Conditions

Pressure 30.40 in
Visibility 10.0 miles
Clouds Few 5000 ft
Windchill 47 °F
Dew Point 37 °F
Humidity 70%
Rainfall 0.91 in
Snow Depth Not available.
UV 1 out of 12
Pollen 4.90 out of 12
Air Quality Not available.
Flu Activity Not available.
METAR KGSO 272154Z 35005KT 10SM FEW050 07/M07 A3038 RMK AO2 SLP292 T00671067 $

More Conditions Fewer Conditions

10-Day Weather Forecast

Almanac

Astronomy

Feb. 27, 2015 Rise Set
Actual Time
Civil Twilight
Nautical Twilight
Astronomical Twilight
Moon
Length of Visible Light
Length of Day
Tomorrow will be .
, % of the Moon is Illuminated

Today's Extremes

State Highs State Lows

Community

WunderPhotos

Upload Photos

1,800,848 photos uploaded!

WunderBlogs® & News

Nearby

Air Quality

  Air Quality AQ Index Pollutant
Not available.

Snow Depth

Station Depth Elevation

Earthquake Activity

City Distance Mag. Time & Date
Minimum magnitude displayed is 2.5.

Coastal Water Temperatures

Place Temperature

Nearby Weather Stations

Winter Weather Advisory
Statement as of 2:59 PM EST on February 27, 2015

... Winter Weather Advisory in effect from 9 PM this evening to
10 am EST Saturday...

The National Weather Service in Raleigh has issued a Winter
Weather Advisory for black ice... which is in effect from 9 PM
this evening to 10 am EST Saturday.

* Locations... the northern Piedmont and northern coastal plain
including The Triad and Triangle.

* Hazard types... areas of black ice across northern portions of
North Carolina.

* Timing... this evening through mid-morning on Saturday.

* Impacts... freezing of meltwater will create areas of black
ice. The refreezing of the ice and snow pack will result in
tricky travel and walking conditions. Be extremely cautions on
area roads... streets... sidewalks... parking lots... steps
and even on interstates... especially the bridges...
overpasses... and ramps.

* Temperatures... in the mid 20s.

Precautionary/preparedness actions...

If you must travel tonight and Saturday morning... stay alert for
black ice... slow down... and leave plenty of following distance.